sensor_id;sensor_type;location;lat;lon;timestamp;pressure;altitude;pressure_sealevel;temperature;humidity
6030;BME280;3043;42.682;23.376;2023-02-10T00:00:04;96733.50;;;-3.30;100.00
6030;BME280;3043;42.682;23.376;2023-02-10T00:02:29;96723.03;;;-3.36;100.00
6030;BME280;3043;42.682;23.376;2023-02-10T00:04:55;96730.72;;;-3.34;100.00
6030;BME280;3043;42.682;23.376;2023-02-10T00:07:20;96735.53;;;-3.39;100.00
6030;BME280;3043;42.682;23.376;2023-02-10T00:09:47;96735.44;;;-3.40;100.00
6030;BME280;3043;42.682;23.376;2023-02-10T00:12:13;96732.81;;;-3.42;100.00
6030;BME280;3043;42.682;23.376;2023-02-10T00:14:38;96725.66;;;-3.49;100.00
6030;BME280;3043;42.682;23.376;2023-02-10T00:17:04;96722.59;;;-3.58;100.00
6030;BME280;3043;42.682;23.376;2023-02-10T00:19:30;96721.47;;;-3.63;100.00
6030;BME280;3043;42.682;23.376;2023-02-10T00:21:57;96726.34;;;-3.66;100.00
6030;BME280;3043;42.682;23.376;2023-02-10T00:24:23;96723.06;;;-3.65;100.00
6030;BME280;3043;42.682;23.376;2023-02-10T00:26:49;96727.69;;;-3.73;100.00
6030;BME280;3043;42.682;23.376;2023-02-10T00:29:15;96730.06;;;-3.76;100.00
6030;BME280;3043;42.682;23.376;2023-02-10T00:31:41;96723.22;;;-3.77;100.00
6030;BME280;3043;42.682;23.376;2023-02-10T00:34:10;96720.78;;;-3.75;100.00
6030;BME280;3043;42.682;23.376;2023-02-10T00:36:36;96718.88;;;-3.79;100.00
6030;BME280;3043;42.682;23.376;2023-02-10T00:39:01;96709.47;;;-3.82;100.00
6030;BME280;3043;42.682;23.376;2023-02-10T00:41:27;96703.34;;;-3.85;100.00
6030;BME280;3043;42.682;23.376;2023-02-10T00:43:53;96717.66;;;-3.86;100.00
6030;BME280;3043;42.682;23.376;2023-02-10T00:46:19;96708.59;;;-3.82;100.00
6030;BME280;3043;42.682;23.376;2023-02-10T00:48:46;96707.72;;;-3.83;100.00
6030;BME280;3043;42.682;23.376;2023-02-10T00:51:12;96701.81;;;-3.83;100.00
6030;BME280;3043;42.682;23.376;2023-02-10T00:53:39;96698.03;;;-3.75;100.00
6030;BME280;3043;42.682;23.376;2023-02-10T00:56:05;96698.09;;;-3.74;100.00
6030;BME280;3043;42.682;23.376;2023-02-10T00:58:30;96697.09;;;-3.77;100.00
6030;BME280;3043;42.682;23.376;2023-02-10T01:00:56;96695.31;;;-3.78;100.00
6030;BME280;3043;42.682;23.376;2023-02-10T01:03:22;96700.38;;;-3.78;100.00
6030;BME280;3043;42.682;23.376;2023-02-10T01:05:48;96686.69;;;-3.96;100.00
6030;BME280;3043;42.682;23.376;2023-02-10T01:08:14;96695.50;;;-3.75;100.00
6030;BME280;3043;42.682;23.376;2023-02-10T01:10:40;96690.34;;;-3.77;100.00
6030;BME280;3043;42.682;23.376;2023-02-10T01:13:07;96687.72;;;-3.78;100.00
6030;BME280;3043;42.682;23.376;2023-02-10T01:15:33;96694.91;;;-3.71;100.00
6030;BME280;3043;42.682;23.376;2023-02-10T01:17:59;96692.19;;;-3.74;100.00
6030;BME280;3043;42.682;23.376;2023-02-10T01:20:24;96689.25;;;-3.82;100.00
6030;BME280;3043;42.682;23.376;2023-02-10T01:22:50;96680.31;;;-3.75;100.00
6030;BME280;3043;42.682;23.376;2023-02-10T01:25:15;96677.34;;;-3.83;100.00
6030;BME280;3043;42.682;23.376;2023-02-10T01:27:41;96673.97;;;-3.83;100.00
6030;BME280;3043;42.682;23.376;2023-02-10T01:30:07;96676.75;;;-3.79;100.00
6030;BME280;3043;42.682;23.376;2023-02-10T01:32:32;96672.84;;;-3.88;100.00
6030;BME280;3043;42.682;23.376;2023-02-10T01:34:58;96674.75;;;-3.84;100.00
6030;BME280;3043;42.682;23.376;2023-02-10T01:37:23;96676.34;;;-3.86;100.00
6030;BME280;3043;42.682;23.376;2023-02-10T01:39:49;96665.88;;;-3.92;100.00
6030;BME280;3043;42.682;23.376;2023-02-10T01:42:15;96676.16;;;-3.89;100.00
6030;BME280;3043;42.682;23.376;2023-02-10T01:47:07;96662.84;;;-4.01;100.00
6030;BME280;3043;42.682;23.376;2023-02-10T01:49:35;96666.91;;;-4.03;100.00
6030;BME280;3043;42.682;23.376;2023-02-10T01:54:50;96659.22;;;-4.19;100.00
6030;BME280;3043;42.682;23.376;2023-02-10T01:57:20;96663.59;;;-4.17;100.00
6030;BME280;3043;42.682;23.376;2023-02-10T01:59:46;96660.47;;;-4.13;100.00
6030;BME280;3043;42.682;23.376;2023-02-10T02:02:13;96651.22;;;-4.12;100.00
6030;BME280;3043;42.682;23.376;2023-02-10T02:04:50;96642.84;;;-4.11;100.00
6030;BME280;3043;42.682;23.376;2023-02-10T02:07:17;96643.72;;;-4.25;100.00
6030;BME280;3043;42.682;23.376;2023-02-10T02:09:43;96645.44;;;-4.39;100.00
6030;BME280;3043;42.682;23.376;2023-02-10T02:12:27;96640.66;;;-4.34;100.00
6030;BME280;3043;42.682;23.376;2023-02-10T02:15:20;96640.06;;;-4.30;100.00
6030;BME280;3043;42.682;23.376;2023-02-10T02:18:02;96634.66;;;-4.36;100.00
6030;BME280;3043;42.682;23.376;2023-02-10T02:20:52;96631.31;;;-4.64;100.00
6030;BME280;3043;42.682;23.376;2023-02-10T02:34:36;96626.47;;;-4.47;100.00
6030;BME280;3043;42.682;23.376;2023-02-10T02:39:31;96633.25;;;-4.60;100.00
6030;BME280;3043;42.682;23.376;2023-02-10T02:42:21;96623.66;;;-4.66;100.00
6030;BME280;3043;42.682;23.376;2023-02-10T02:44:51;96625.56;;;-4.76;100.00
6030;BME280;3043;42.682;23.376;2023-02-10T02:55:35;96626.25;;;-5.34;100.00
6030;BME280;3043;42.682;23.376;2023-02-10T02:58:29;96628.88;;;-5.32;100.00
6030;BME280;3043;42.682;23.376;2023-02-10T03:00:53;96619.34;;;-5.23;100.00
6030;BME280;3043;42.682;23.376;2023-02-10T03:03:20;96620.03;;;-5.26;100.00
6030;BME280;3043;42.682;23.376;2023-02-10T03:05:46;96628.25;;;-5.15;100.00
6030;BME280;3043;42.682;23.376;2023-02-10T03:08:11;96622.47;;;-5.27;100.00
6030;BME280;3043;42.682;23.376;2023-02-10T03:10:37;96618.91;;;-5.16;100.00
6030;BME280;3043;42.682;23.376;2023-02-10T03:13:02;96617.41;;;-5.27;100.00
6030;BME280;3043;42.682;23.376;2023-02-10T03:15:28;96629.75;;;-5.45;100.00
6030;BME280;3043;42.682;23.376;2023-02-10T03:17:55;96628.03;;;-5.46;100.00
6030;BME280;3043;42.682;23.376;2023-02-10T03:20:21;96632.94;;;-5.34;100.00
6030;BME280;3043;42.682;23.376;2023-02-10T03:22:46;96619.34;;;-5.23;100.00
6030;BME280;3043;42.682;23.376;2023-02-10T03:25:12;96618.34;;;-5.12;100.00
6030;BME280;3043;42.682;23.376;2023-02-10T03:27:37;96625.94;;;-5.25;100.00
6030;BME280;3043;42.682;23.376;2023-02-10T03:30:03;96636.00;;;-5.25;100.00
6030;BME280;3043;42.682;23.376;2023-02-10T03:32:29;96626.19;;;-5.08;100.00
6030;BME280;3043;42.682;23.376;2023-02-10T03:34:54;96629.78;;;-5.04;100.00
6030;BME280;3043;42.682;23.376;2023-02-10T03:37:19;96626.09;;;-5.09;100.00
6030;BME280;3043;42.682;23.376;2023-02-10T03:39:45;96620.84;;;-5.12;100.00
6030;BME280;3043;42.682;23.376;2023-02-10T03:42:11;96616.00;;;-5.22;100.00
6030;BME280;3043;42.682;23.376;2023-02-10T03:44:37;96614.09;;;-5.67;100.00
6030;BME280;3043;42.682;23.376;2023-02-10T03:47:02;96614.75;;;-5.70;100.00
6030;BME280;3043;42.682;23.376;2023-02-10T03:49:28;96607.56;;;-5.51;100.00
6030;BME280;3043;42.682;23.376;2023-02-10T03:51:53;96609.50;;;-5.47;100.00
6030;BME280;3043;42.682;23.376;2023-02-10T03:54:19;96597.63;;;-5.34;100.00
6030;BME280;3043;42.682;23.376;2023-02-10T03:56:44;96608.78;;;-5.31;100.00
6030;BME280;3043;42.682;23.376;2023-02-10T03:59:10;96602.72;;;-5.47;100.00
6030;BME280;3043;42.682;23.376;2023-02-10T04:01:35;96600.88;;;-5.22;100.00
6030;BME280;3043;42.682;23.376;2023-02-10T04:04:01;96599.78;;;-5.40;100.00
6030;BME280;3043;42.682;23.376;2023-02-10T04:06:26;96598.78;;;-5.29;100.00
6030;BME280;3043;42.682;23.376;2023-02-10T04:08:52;96597.06;;;-5.16;100.00
6030;BME280;3043;42.682;23.376;2023-02-10T04:11:17;96592.28;;;-5.11;100.00
6030;BME280;3043;42.682;23.376;2023-02-10T04:13:42;96590.06;;;-5.34;100.00
6030;BME280;3043;42.682;23.376;2023-02-10T04:16:14;96600.50;;;-5.28;100.00
6030;BME280;3043;42.682;23.376;2023-02-10T04:18:41;96609.13;;;-5.53;100.00
6030;BME280;3043;42.682;23.376;2023-02-10T04:21:09;96607.91;;;-5.59;100.00
6030;BME280;3043;42.682;23.376;2023-02-10T04:23:35;96607.19;;;-5.57;100.00
6030;BME280;3043;42.682;23.376;2023-02-10T04:26:01;96605.69;;;-5.81;100.00
6030;BME280;3043;42.682;23.376;2023-02-10T04:28:27;96604.31;;;-5.76;100.00
6030;BME280;3043;42.682;23.376;2023-02-10T04:30:58;96599.25;;;-5.76;100.00
6030;BME280;3043;42.682;23.376;2023-02-10T04:33:25;96603.78;;;-5.85;100.00
6030;BME280;3043;42.682;23.376;2023-02-10T04:35:52;96598.94;;;-5.95;100.00
6030;BME280;3043;42.682;23.376;2023-02-10T04:38:17;96605.34;;;-5.87;100.00
6030;BME280;3043;42.682;23.376;2023-02-10T04:40:43;96604.38;;;-5.89;100.00
6030;BME280;3043;42.682;23.376;2023-02-10T04:43:09;96599.91;;;-5.93;100.00
6030;BME280;3043;42.682;23.376;2023-02-10T04:45:35;96610.09;;;-6.17;100.00
6030;BME280;3043;42.682;23.376;2023-02-10T04:48:01;96609.41;;;-6.15;100.00
6030;BME280;3043;42.682;23.376;2023-02-10T04:50:26;96612.81;;;-6.14;100.00
6030;BME280;3043;42.682;23.376;2023-02-10T04:52:52;96612.81;;;-6.14;100.00
6030;BME280;3043;42.682;23.376;2023-02-10T04:55:17;96614.66;;;-6.25;100.00
6030;BME280;3043;42.682;23.376;2023-02-10T04:57:43;96609.63;;;-6.25;100.00
6030;BME280;3043;42.682;23.376;2023-02-10T05:00:09;96611.34;;;-5.98;100.00
6030;BME280;3043;42.682;23.376;2023-02-10T05:02:35;96613.59;;;-6.02;100.00
6030;BME280;3043;42.682;23.376;2023-02-10T05:05:00;96618.31;;;-5.94;100.00
6030;BME280;3043;42.682;23.376;2023-02-10T05:07:26;96615.31;;;-6.01;100.00
6030;BME280;3043;42.682;23.376;2023-02-10T05:09:51;96621.91;;;-5.90;100.00
6030;BME280;3043;42.682;23.376;2023-02-10T05:12:17;96626.09;;;-6.04;100.00
6030;BME280;3043;42.682;23.376;2023-02-10T05:14:42;96628.22;;;-5.97;100.00
6030;BME280;3043;42.682;23.376;2023-02-10T05:17:08;96628.41;;;-6.20;100.00
6030;BME280;3043;42.682;23.376;2023-02-10T05:19:33;96630.34;;;-6.16;100.00
6030;BME280;3043;42.682;23.376;2023-02-10T05:21:59;96641.97;;;-6.18;100.00
6030;BME280;3043;42.682;23.376;2023-02-10T05:24:24;96646.22;;;-6.17;100.00
6030;BME280;3043;42.682;23.376;2023-02-10T05:26:50;96655.34;;;-6.19;100.00
6030;BME280;3043;42.682;23.376;2023-02-10T05:29:15;96659.22;;;-6.37;100.00
6030;BME280;3043;42.682;23.376;2023-02-10T05:31:41;96656.66;;;-6.50;100.00
6030;BME280;3043;42.682;23.376;2023-02-10T05:34:06;96659.06;;;-6.51;100.00
6030;BME280;3043;42.682;23.376;2023-02-10T05:36:32;96655.72;;;-6.39;100.00
6030;BME280;3043;42.682;23.376;2023-02-10T05:38:57;96667.66;;;-6.23;100.00
6030;BME280;3043;42.682;23.376;2023-02-10T05:41:41;96675.84;;;-6.39;100.00
6030;BME280;3043;42.682;23.376;2023-02-10T05:44:06;96669.56;;;-6.70;100.00
6030;BME280;3043;42.682;23.376;2023-02-10T05:46:32;96668.81;;;-6.69;100.00
6030;BME280;3043;42.682;23.376;2023-02-10T05:48:57;96684.13;;;-6.66;100.00
6030;BME280;3043;42.682;23.376;2023-02-10T05:51:23;96676.94;;;-6.35;100.00
6030;BME280;3043;42.682;23.376;2023-02-10T05:53:48;96675.53;;;-5.93;100.00
6030;BME280;3043;42.682;23.376;2023-02-10T05:56:14;96683.13;;;-5.65;100.00
6030;BME280;3043;42.682;23.376;2023-02-10T05:58:39;96671.22;;;-5.55;100.00
6030;BME280;3043;42.682;23.376;2023-02-10T06:01:09;96675.59;;;-5.11;100.00
6030;BME280;3043;42.682;23.376;2023-02-10T06:03:35;96675.06;;;-4.65;100.00
6030;BME280;3043;42.682;23.376;2023-02-10T06:06:00;96676.69;;;-4.09;100.00
6030;BME280;3043;42.682;23.376;2023-02-10T06:08:26;96678.38;;;-3.50;100.00
6030;BME280;3043;42.682;23.376;2023-02-10T06:10:52;96687.53;;;-2.91;100.00
6030;BME280;3043;42.682;23.376;2023-02-10T06:13:17;96688.16;;;-2.31;100.00
6030;BME280;3043;42.682;23.376;2023-02-10T06:15:43;96689.88;;;-1.62;100.00
6030;BME280;3043;42.682;23.376;2023-02-10T06:18:08;96687.44;;;-1.08;100.00
6030;BME280;3043;42.682;23.376;2023-02-10T06:20:34;96699.56;;;-0.47;98.61
6030;BME280;3043;42.682;23.376;2023-02-10T06:22:59;96695.44;;;-0.06;91.56
6030;BME280;3043;42.682;23.376;2023-02-10T06:25:25;96696.69;;;0.44;87.07
6030;BME280;3043;42.682;23.376;2023-02-10T06:27:50;96701.88;;;0.88;81.68
6030;BME280;3043;42.682;23.376;2023-02-10T06:30:16;96704.50;;;1.33;77.59
6030;BME280;3043;42.682;23.376;2023-02-10T06:32:41;96705.69;;;1.65;71.81
6030;BME280;3043;42.682;23.376;2023-02-10T06:35:07;96712.00;;;2.22;69.17
6030;BME280;3043;42.682;23.376;2023-02-10T06:37:32;96707.00;;;2.25;64.77
6030;BME280;3043;42.682;23.376;2023-02-10T06:39:57;96708.00;;;2.55;62.89
6030;BME280;3043;42.682;23.376;2023-02-10T06:42:23;96694.53;;;3.99;81.29
6030;BME280;3043;42.682;23.376;2023-02-10T06:44:48;96703.94;;;4.96;80.39
6030;BME280;3043;42.682;23.376;2023-02-10T06:47:14;96705.44;;;5.63;68.88
6030;BME280;3043;42.682;23.376;2023-02-10T06:49:39;96712.88;;;5.50;54.97
6030;BME280;3043;42.682;23.376;2023-02-10T06:52:05;96716.97;;;5.42;50.54
6030;BME280;3043;42.682;23.376;2023-02-10T06:54:30;96713.75;;;5.14;50.05
6030;BME280;3043;42.682;23.376;2023-02-10T06:56:56;96711.50;;;5.27;49.25
6030;BME280;3043;42.682;23.376;2023-02-10T06:59:22;96720.72;;;5.57;48.39
6030;BME280;3043;42.682;23.376;2023-02-10T07:01:47;96723.34;;;5.60;48.08
6030;BME280;3043;42.682;23.376;2023-02-10T07:04:13;96722.97;;;5.43;47.27
6030;BME280;3043;42.682;23.376;2023-02-10T07:06:38;96727.66;;;5.61;46.78
6030;BME280;3043;42.682;23.376;2023-02-10T07:09:04;96718.53;;;5.75;46.48
6030;BME280;3043;42.682;23.376;2023-02-10T07:11:31;96716.69;;;6.08;46.08
6030;BME280;3043;42.682;23.376;2023-02-10T07:13:56;96706.69;;;6.20;45.08
6030;BME280;3043;42.682;23.376;2023-02-10T07:16:22;96711.13;;;5.87;45.46
6030;BME280;3043;42.682;23.376;2023-02-10T07:18:47;96709.09;;;5.74;46.29
6030;BME280;3043;42.682;23.376;2023-02-10T07:21:13;96706.97;;;6.35;45.35
6030;BME280;3043;42.682;23.376;2023-02-10T07:23:39;96702.53;;;6.74;44.06
6030;BME280;3043;42.682;23.376;2023-02-10T07:26:05;96704.66;;;6.99;43.67
6030;BME280;3043;42.682;23.376;2023-02-10T07:28:31;96708.78;;;7.43;42.69
6030;BME280;3043;42.682;23.376;2023-02-10T07:30:56;96699.94;;;7.86;42.15
6030;BME280;3043;42.682;23.376;2023-02-10T07:33:22;96703.97;;;7.67;41.53
6030;BME280;3043;42.682;23.376;2023-02-10T07:35:47;96702.44;;;7.20;41.95
6030;BME280;3043;42.682;23.376;2023-02-10T07:38:13;96703.91;;;7.04;42.37
6030;BME280;3043;42.682;23.376;2023-02-10T07:40:38;96696.03;;;7.52;42.61
6030;BME280;3043;42.682;23.376;2023-02-10T07:43:03;96692.94;;;7.76;41.58
6030;BME280;3043;42.682;23.376;2023-02-10T07:45:29;96695.09;;;8.11;40.15
6030;BME280;3043;42.682;23.376;2023-02-10T07:47:58;96697.50;;;7.96;40.10
6030;BME280;3043;42.682;23.376;2023-02-10T07:50:24;96697.22;;;8.42;39.86
6030;BME280;3043;42.682;23.376;2023-02-10T07:52:49;96701.41;;;8.34;39.32
6030;BME280;3043;42.682;23.376;2023-02-10T07:55:15;96702.31;;;8.36;39.12
6030;BME280;3043;42.682;23.376;2023-02-10T07:57:41;96706.19;;;8.04;40.06
6030;BME280;3043;42.682;23.376;2023-02-10T08:00:09;96702.53;;;7.87;39.94
6030;BME280;3043;42.682;23.376;2023-02-10T08:02:37;96712.44;;;7.57;40.33
6030;BME280;3043;42.682;23.376;2023-02-10T08:05:02;96707.97;;;8.11;40.17
6030;BME280;3043;42.682;23.376;2023-02-10T08:07:28;96696.69;;;8.73;39.27
6030;BME280;3043;42.682;23.376;2023-02-10T08:09:53;96699.19;;;8.67;39.50
6030;BME280;3043;42.682;23.376;2023-02-10T08:12:19;96703.13;;;9.24;38.73
6030;BME280;3043;42.682;23.376;2023-02-10T08:14:45;96698.94;;;9.41;38.39
6030;BME280;3043;42.682;23.376;2023-02-10T08:17:10;96695.69;;;9.69;37.83
6030;BME280;3043;42.682;23.376;2023-02-10T08:19:36;96692.50;;;10.12;37.12
6030;BME280;3043;42.682;23.376;2023-02-10T08:22:05;96689.09;;;10.25;36.85
6030;BME280;3043;42.682;23.376;2023-02-10T08:24:31;96696.06;;;10.41;36.38
6030;BME280;3043;42.682;23.376;2023-02-10T08:26:57;96697.88;;;10.76;35.83
6030;BME280;3043;42.682;23.376;2023-02-10T08:29:22;96694.38;;;10.61;35.64
6030;BME280;3043;42.682;23.376;2023-02-10T08:31:51;96697.91;;;10.96;35.19
6030;BME280;3043;42.682;23.376;2023-02-10T08:34:19;96694.41;;;10.79;35.39
6030;BME280;3043;42.682;23.376;2023-02-10T08:36:45;96697.91;;;10.96;35.35
6030;BME280;3043;42.682;23.376;2023-02-10T08:39:11;96695.28;;;10.66;35.08
6030;BME280;3043;42.682;23.376;2023-02-10T08:41:37;96694.41;;;10.64;35.28
6030;BME280;3043;42.682;23.376;2023-02-10T08:44:03;96696.19;;;10.89;35.04
6030;BME280;3043;42.682;23.376;2023-02-10T08:46:29;96692.72;;;10.87;34.60
6030;BME280;3043;42.682;23.376;2023-02-10T08:48:54;96690.13;;;11.20;34.68
6030;BME280;3043;42.682;23.376;2023-02-10T08:51:20;96689.28;;;11.30;34.29
6030;BME280;3043;42.682;23.376;2023-02-10T08:53:45;96684.06;;;11.54;33.60
6030;BME280;3043;42.682;23.376;2023-02-10T08:56:15;96683.06;;;12.14;32.70
6030;BME280;3043;42.682;23.376;2023-02-10T08:58:41;96684.06;;;11.24;33.55
6030;BME280;3043;42.682;23.376;2023-02-10T09:01:11;96678.91;;;10.97;34.36
6030;BME280;3043;42.682;23.376;2023-02-10T09:03:38;96678.91;;;11.39;33.90
6030;BME280;3043;42.682;23.376;2023-02-10T09:06:03;96675.44;;;11.52;33.96
6030;BME280;3043;42.682;23.376;2023-02-10T09:08:29;96679.75;;;11.38;33.99
6030;BME280;3043;42.682;23.376;2023-02-10T09:10:54;96672.88;;;11.15;34.28
6030;BME280;3043;42.682;23.376;2023-02-10T09:13:20;96671.97;;;11.35;34.32
6030;BME280;3043;42.682;23.376;2023-02-10T09:15:46;96662.47;;;11.43;33.75
6030;BME280;3043;42.682;23.376;2023-02-10T09:18:12;96662.41;;;11.87;33.84
6030;BME280;3043;42.682;23.376;2023-02-10T09:20:38;96669.28;;;12.00;33.04
6030;BME280;3043;42.682;23.376;2023-02-10T09:23:03;96665.75;;;12.19;32.80
6030;BME280;3043;42.682;23.376;2023-02-10T09:25:29;96676.94;;;12.31;32.24
6030;BME280;3043;42.682;23.376;2023-02-10T09:27:54;96668.13;;;12.59;31.99
6030;BME280;3043;42.682;23.376;2023-02-10T09:30:23;96667.22;;;12.70;31.66
6030;BME280;3043;42.682;23.376;2023-02-10T09:32:50;96666.34;;;12.71;31.15
6030;BME280;3043;42.682;23.376;2023-02-10T09:35:15;96659.50;;;12.57;31.44
6030;BME280;3043;42.682;23.376;2023-02-10T09:37:41;96664.72;;;12.54;32.03
6030;BME280;3043;42.682;23.376;2023-02-10T09:40:09;96655.16;;;12.55;31.48
6030;BME280;3043;42.682;23.376;2023-02-10T09:45:26;96647.16;;;12.90;30.99
6030;BME280;3043;42.682;23.376;2023-02-10T09:47:56;96647.16;;;12.93;31.08
6030;BME280;3043;42.682;23.376;2023-02-10T09:50:59;96646.00;;;13.30;30.62
6030;BME280;3043;42.682;23.376;2023-02-10T09:53:29;96637.03;;;12.47;30.40
6030;BME280;3043;42.682;23.376;2023-02-10T09:56:03;96637.44;;;11.42;31.76
6030;BME280;3043;42.682;23.376;2023-02-10T09:58:44;96628.75;;;10.47;33.20
6030;BME280;3043;42.682;23.376;2023-02-10T10:01:18;96638.94;;;9.99;34.09
6030;BME280;3043;42.682;23.376;2023-02-10T10:03:49;96638.97;;;10.02;34.29
6030;BME280;3043;42.682;23.376;2023-02-10T10:06:21;96625.31;;;10.39;34.07
6030;BME280;3043;42.682;23.376;2023-02-10T10:14:22;96611.47;;;11.51;32.73
6030;BME280;3043;42.682;23.376;2023-02-10T10:22:20;96600.19;;;11.70;31.78
6030;BME280;3043;42.682;23.376;2023-02-10T10:27:41;96592.50;;;11.22;32.66
6030;BME280;3043;42.682;23.376;2023-02-10T10:30:19;96590.75;;;11.39;32.83
6030;BME280;3043;42.682;23.376;2023-02-10T10:32:53;96583.72;;;11.80;31.93
6030;BME280;3043;42.682;23.376;2023-02-10T10:35:35;96577.00;;;11.04;31.92
6030;BME280;3043;42.682;23.376;2023-02-10T10:40:48;96577.84;;;10.44;33.24
6030;BME280;3043;42.682;23.376;2023-02-10T10:43:24;96577.84;;;10.29;33.65
6030;BME280;3043;42.682;23.376;2023-02-10T10:45:55;96575.25;;;10.28;33.69
6030;BME280;3043;42.682;23.376;2023-02-10T10:48:24;96569.13;;;10.02;33.39
6030;BME280;3043;42.682;23.376;2023-02-10T10:51:01;96569.84;;;9.68;33.99
6030;BME280;3043;42.682;23.376;2023-02-10T10:56:01;96563.66;;;9.27;34.77
6030;BME280;3043;42.682;23.376;2023-02-10T10:58:40;96560.09;;;9.07;35.63
6030;BME280;3043;42.682;23.376;2023-02-10T11:01:08;96562.88;;;9.46;35.06
6030;BME280;3043;42.682;23.376;2023-02-10T11:03:34;96550.13;;;9.95;34.98
6030;BME280;3043;42.682;23.376;2023-02-10T11:06:11;96546.78;;;10.28;34.49
6030;BME280;3043;42.682;23.376;2023-02-10T11:08:42;96548.50;;;10.26;34.50
6030;BME280;3043;42.682;23.376;2023-02-10T11:11:14;96547.41;;;9.58;35.15
6030;BME280;3043;42.682;23.376;2023-02-10T11:13:49;96546.72;;;10.04;34.27
6030;BME280;3043;42.682;23.376;2023-02-10T11:16:15;96539.03;;;10.37;33.64
6030;BME280;3043;42.682;23.376;2023-02-10T11:18:56;96539.03;;;10.67;33.83
6030;BME280;3043;42.682;23.376;2023-02-10T11:21:36;96532.09;;;10.87;33.02
6030;BME280;3043;42.682;23.376;2023-02-10T11:24:03;96535.53;;;11.04;32.77
6030;BME280;3043;42.682;23.376;2023-02-10T11:26:28;96523.41;;;11.15;32.80
6030;BME280;3043;42.682;23.376;2023-02-10T11:28:55;96524.25;;;11.22;32.70
6030;BME280;3043;42.682;23.376;2023-02-10T11:31:34;96519.91;;;11.31;33.03
6030;BME280;3043;42.682;23.376;2023-02-10T11:34:25;96519.13;;;10.98;33.35
6030;BME280;3043;42.682;23.376;2023-02-10T11:36:52;96519.94;;;11.19;33.14
6030;BME280;3043;42.682;23.376;2023-02-10T11:39:36;96515.66;;;11.00;33.62
6030;BME280;3043;42.682;23.376;2023-02-10T11:42:10;96509.66;;;10.92;33.55
6030;BME280;3043;42.682;23.376;2023-02-10T11:44:36;96504.47;;;10.92;34.04
6030;BME280;3043;42.682;23.376;2023-02-10T11:47:10;96513.09;;;10.91;33.25
6030;BME280;3043;42.682;23.376;2023-02-10T11:49:43;96514.81;;;11.03;32.52
6030;BME280;3043;42.682;23.376;2023-02-10T11:52:09;96511.31;;;11.20;32.88
6030;BME280;3043;42.682;23.376;2023-02-10T11:54:36;96502.72;;;10.88;32.57
6030;BME280;3043;42.682;23.376;2023-02-10T12:00:16;96494.09;;;9.90;34.15
6030;BME280;3043;42.682;23.376;2023-02-10T12:16:51;96470.41;;;8.84;35.01
6030;BME280;3043;42.682;23.376;2023-02-10T12:30:38;96472.34;;;7.99;36.88
6030;BME280;3043;42.682;23.376;2023-02-10T12:35:54;96464.13;;;8.43;35.96
6030;BME280;3043;42.682;23.376;2023-02-10T12:54:13;96449.56;;;7.51;36.20
6030;BME280;3043;42.682;23.376;2023-02-10T12:56:46;96453.31;;;7.83;36.42
6030;BME280;3043;42.682;23.376;2023-02-10T12:59:21;96447.31;;;7.87;35.96
6030;BME280;3043;42.682;23.376;2023-02-10T13:01:56;96450.78;;;7.89;36.96
6030;BME280;3043;42.682;23.376;2023-02-10T13:07:54;96452.03;;;8.33;36.00
6030;BME280;3043;42.682;23.376;2023-02-10T13:09:52;96446.72;;;8.15;35.85
6030;BME280;3043;42.682;23.376;2023-02-10T13:12:27;96448.47;;;8.21;35.93
6030;BME280;3043;42.682;23.376;2023-02-10T13:15:01;96449.94;;;7.93;36.47
6030;BME280;3043;42.682;23.376;2023-02-10T13:17:39;96444.75;;;7.87;36.60
6030;BME280;3043;42.682;23.376;2023-02-10T13:23:24;96447.50;;;8.11;36.12
6030;BME280;3043;42.682;23.376;2023-02-10T13:39:33;96435.22;;;7.80;36.85
6030;BME280;3043;42.682;23.376;2023-02-10T13:44:44;96439.19;;;7.45;36.45
6030;BME280;3043;42.682;23.376;2023-02-10T13:47:39;96431.13;;;7.13;36.59
6030;BME280;3043;42.682;23.376;2023-02-10T13:52:51;96438.94;;;6.54;37.36
6030;BME280;3043;42.682;23.376;2023-02-10T13:57:54;96434.88;;;6.71;37.39
6030;BME280;3043;42.682;23.376;2023-02-10T14:00:44;96436.47;;;6.63;38.12
6030;BME280;3043;42.682;23.376;2023-02-10T14:05:50;96431.78;;;6.33;39.19
6030;BME280;3043;42.682;23.376;2023-02-10T14:08:46;96440.31;;;6.32;38.92
6030;BME280;3043;42.682;23.376;2023-02-10T14:13:43;96433.69;;;5.93;40.16
6030;BME280;3043;42.682;23.376;2023-02-10T14:18:43;96441.69;;;5.59;40.96
6030;BME280;3043;42.682;23.376;2023-02-10T14:21:16;96436.69;;;5.68;40.73
6030;BME280;3043;42.682;23.376;2023-02-10T14:23:55;96441.00;;;5.70;40.72
6030;BME280;3043;42.682;23.376;2023-02-10T14:26:32;96443.56;;;5.69;40.69
6030;BME280;3043;42.682;23.376;2023-02-10T14:28:59;96427.41;;;5.74;39.90
6030;BME280;3043;42.682;23.376;2023-02-10T14:31:30;96438.31;;;5.63;39.93
6030;BME280;3043;42.682;23.376;2023-02-10T14:34:03;96422.31;;;5.77;40.18
6030;BME280;3043;42.682;23.376;2023-02-10T14:36:29;96426.06;;;5.46;40.29
6030;BME280;3043;42.682;23.376;2023-02-10T14:38:58;96424.25;;;5.42;40.53
6030;BME280;3043;42.682;23.376;2023-02-10T14:41:26;96424.34;;;5.48;40.22
6030;BME280;3043;42.682;23.376;2023-02-10T14:43:52;96426.00;;;5.43;39.35
6030;BME280;3043;42.682;23.376;2023-02-10T14:46:31;96425.19;;;5.46;38.84
6030;BME280;3043;42.682;23.376;2023-02-10T14:49:08;96427.72;;;5.44;38.19
6030;BME280;3043;42.682;23.376;2023-02-10T14:51:40;96418.31;;;5.45;38.93
6030;BME280;3043;42.682;23.376;2023-02-10T14:54:26;96424.88;;;5.29;39.79
6030;BME280;3043;42.682;23.376;2023-02-10T14:59:20;96423.97;;;5.27;40.84
6030;BME280;3043;42.682;23.376;2023-02-10T15:01:46;96424.94;;;5.32;40.87
6030;BME280;3043;42.682;23.376;2023-02-10T15:04:16;96427.50;;;5.32;41.24
6030;BME280;3043;42.682;23.376;2023-02-10T15:06:45;96429.31;;;5.39;41.81
6030;BME280;3043;42.682;23.376;2023-02-10T15:09:23;96432.47;;;5.23;42.05
6030;BME280;3043;42.682;23.376;2023-02-10T15:11:58;96427.53;;;5.34;41.68
6030;BME280;3043;42.682;23.376;2023-02-10T15:17:37;96433.38;;;5.25;42.00
6030;BME280;3043;42.682;23.376;2023-02-10T15:22:44;96435.81;;;5.19;41.63
6030;BME280;3043;42.682;23.376;2023-02-10T15:25:32;96437.53;;;5.19;41.49
6030;BME280;3043;42.682;23.376;2023-02-10T15:36:20;96439.72;;;4.99;43.19
6030;BME280;3043;42.682;23.376;2023-02-10T15:41:27;96444.34;;;4.75;45.15
6030;BME280;3043;42.682;23.376;2023-02-10T15:43:53;96450.16;;;4.68;44.92
6030;BME280;3043;42.682;23.376;2023-02-10T15:46:22;96449.03;;;4.56;45.45